sensor_id;sensor_type;location;lat;lon;timestamp;temperature;humidity
78366;HTU21D;67641;59.864;30.464;2023-07-13T00:55:18;25.64;32.89
78366;HTU21D;67641;59.864;30.464;2023-07-13T00:57:45;25.63;32.85
78366;HTU21D;67641;59.864;30.464;2023-07-13T01:00:12;25.61;32.35
78366;HTU21D;67641;59.864;30.464;2023-07-13T01:24:32;25.44;33.19
78366;HTU21D;67641;59.864;30.464;2023-07-13T01:26:59;25.43;33.35
78366;HTU21D;67641;59.864;30.464;2023-07-13T01:51:17;25.33;33.07
78366;HTU21D;67641;59.864;30.464;2023-07-13T02:15:23;25.17;32.41
78366;HTU21D;67641;59.864;30.464;2023-07-13T02:17:50;25.16;32.64
78366;HTU21D;67641;59.864;30.464;2023-07-13T02:45:08;24.95;33.05
78366;HTU21D;67641;59.864;30.464;2023-07-13T02:47:35;24.94;32.81
78366;HTU21D;67641;59.864;30.464;2023-07-13T03:11:42;24.99;32.68
78366;HTU21D;67641;59.864;30.464;2023-07-13T03:14:09;25.03;32.09
78366;HTU21D;67641;59.864;30.464;2023-07-13T03:16:36;25.10;32.73
78366;HTU21D;67641;59.864;30.464;2023-07-13T03:19:02;25.08;33.12
78366;HTU21D;67641;59.864;30.464;2023-07-13T03:21:29;25.03;33.60
78366;HTU21D;67641;59.864;30.464;2023-07-13T03:26:08;25.02;33.84
78366;HTU21D;67641;59.864;30.464;2023-07-13T03:28:35;25.00;33.66
78366;HTU21D;67641;59.864;30.464;2023-07-13T03:31:03;25.07;33.50
78366;HTU21D;67641;59.864;30.464;2023-07-13T03:33:30;25.08;34.25
78366;HTU21D;67641;59.864;30.464;2023-07-13T03:35:56;25.10;35.06
78366;HTU21D;67641;59.864;30.464;2023-07-13T03:38:23;25.12;34.79
78366;HTU21D;67641;59.864;30.464;2023-07-13T03:40:49;25.15;34.15
78366;HTU21D;67641;59.864;30.464;2023-07-13T03:43:16;25.20;34.29
78366;HTU21D;67641;59.864;30.464;2023-07-13T03:48:10;25.27;35.73
78366;HTU21D;67641;59.864;30.464;2023-07-13T03:50:36;25.27;35.67
78366;HTU21D;67641;59.864;30.464;2023-07-13T03:53:03;25.30;35.42
78366;HTU21D;67641;59.864;30.464;2023-07-13T03:55:29;25.33;35.68
78366;HTU21D;67641;59.864;30.464;2023-07-13T03:58:22;25.39;35.78
78366;HTU21D;67641;59.864;30.464;2023-07-13T04:00:47;25.44;35.00
78366;HTU21D;67641;59.864;30.464;2023-07-13T04:03:13;25.48;36.91
78366;HTU21D;67641;59.864;30.464;2023-07-13T04:27:20;25.67;39.72
78366;HTU21D;67641;59.864;30.464;2023-07-13T04:31:01;25.73;40.55
78366;HTU21D;67641;59.864;30.464;2023-07-13T04:33:28;25.78;39.37
78366;HTU21D;67641;59.864;30.464;2023-07-13T04:35:56;25.83;40.36
78366;HTU21D;67641;59.864;30.464;2023-07-13T04:38:25;25.87;41.97
78366;HTU21D;67641;59.864;30.464;2023-07-13T04:41:01;25.90;41.85
78366;HTU21D;67641;59.864;30.464;2023-07-13T04:43:29;25.95;41.87
78366;HTU21D;67641;59.864;30.464;2023-07-13T04:45:56;25.99;42.24
78366;HTU21D;67641;59.864;30.464;2023-07-13T04:48:24;26.07;42.36
78366;HTU21D;67641;59.864;30.464;2023-07-13T04:52:41;26.15;39.41
78366;HTU21D;67641;59.864;30.464;2023-07-13T04:55:08;26.21;38.62
78366;HTU21D;67641;59.864;30.464;2023-07-13T04:57:36;26.26;40.36
78366;HTU21D;67641;59.864;30.464;2023-07-13T05:00:04;26.30;38.85
78366;HTU21D;67641;59.864;30.464;2023-07-13T05:02:31;26.35;34.15
78366;HTU21D;67641;59.864;30.464;2023-07-13T05:04:59;26.41;33.33
78366;HTU21D;67641;59.864;30.464;2023-07-13T05:07:26;26.46;33.37
78366;HTU21D;67641;59.864;30.464;2023-07-13T05:09:53;26.47;34.97
78366;HTU21D;67641;59.864;30.464;2023-07-13T05:14:12;26.53;33.37
78366;HTU21D;67641;59.864;30.464;2023-07-13T05:16:39;26.51;35.47
78366;HTU21D;67641;59.864;30.464;2023-07-13T05:19:06;26.57;35.24
78366;HTU21D;67641;59.864;30.464;2023-07-13T05:21:33;26.62;34.66
78366;HTU21D;67641;59.864;30.464;2023-07-13T05:46:21;26.95;29.75
78366;HTU21D;67641;59.864;30.464;2023-07-13T05:48:47;27.01;28.93
78366;HTU21D;67641;59.864;30.464;2023-07-13T05:51:14;27.07;28.36
78366;HTU21D;67641;59.864;30.464;2023-07-13T05:53:40;27.11;28.65
78366;HTU21D;67641;59.864;30.464;2023-07-13T05:57:20;27.17;29.04
78366;HTU21D;67641;59.864;30.464;2023-07-13T05:59:47;27.25;29.38
78366;HTU21D;67641;59.864;30.464;2023-07-13T06:02:14;27.28;28.48
78366;HTU21D;67641;59.864;30.464;2023-07-13T06:04:41;27.30;30.19
78366;HTU21D;67641;59.864;30.464;2023-07-13T06:07:08;27.30;29.18
78366;HTU21D;67641;59.864;30.464;2023-07-13T06:09:34;27.32;28.99
78366;HTU21D;67641;59.864;30.464;2023-07-13T06:12:01;27.38;30.79
78366;HTU21D;67641;59.864;30.464;2023-07-13T06:14:30;27.40;31.07
78366;HTU21D;67641;59.864;30.464;2023-07-13T06:18:51;27.50;29.78
78366;HTU21D;67641;59.864;30.464;2023-07-13T06:21:21;27.53;30.43
78366;HTU21D;67641;59.864;30.464;2023-07-13T06:23:51;27.57;29.10
78366;HTU21D;67641;59.864;30.464;2023-07-13T06:26:21;27.60;28.20
78366;HTU21D;67641;59.864;30.464;2023-07-13T06:28:50;27.61;28.48
78366;HTU21D;67641;59.864;30.464;2023-07-13T06:31:18;27.61;28.32
78366;HTU21D;67641;59.864;30.464;2023-07-13T06:33:48;27.61;28.36
78366;HTU21D;67641;59.864;30.464;2023-07-13T06:36:17;27.66;28.71
78366;HTU21D;67641;59.864;30.464;2023-07-13T06:40:12;27.65;28.57
78366;HTU21D;67641;59.864;30.464;2023-07-13T06:42:41;27.68;29.74
78366;HTU21D;67641;59.864;30.464;2023-07-13T07:07:34;28.21;28.14
78366;HTU21D;67641;59.864;30.464;2023-07-13T07:10:00;28.27;27.21
78366;HTU21D;67641;59.864;30.464;2023-07-13T07:12:29;28.28;26.98
78366;HTU21D;67641;59.864;30.464;2023-07-13T07:14:56;28.29;27.47
78366;HTU21D;67641;59.864;30.464;2023-07-13T07:17:22;28.32;28.10
78366;HTU21D;67641;59.864;30.464;2023-07-13T07:21:48;28.42;27.76
78366;HTU21D;67641;59.864;30.464;2023-07-13T07:24:15;28.47;26.71
78366;HTU21D;67641;59.864;30.464;2023-07-13T07:26:42;28.48;26.56
78366;HTU21D;67641;59.864;30.464;2023-07-13T07:29:09;28.56;26.74
78366;HTU21D;67641;59.864;30.464;2023-07-13T07:31:37;28.63;27.23
78366;HTU21D;67641;59.864;30.464;2023-07-13T07:34:04;28.71;27.25
78366;HTU21D;67641;59.864;30.464;2023-07-13T07:36:30;28.70;27.43
78366;HTU21D;67641;59.864;30.464;2023-07-13T07:38:58;28.71;26.55
78366;HTU21D;67641;59.864;30.464;2023-07-13T07:41:38;28.75;27.61
78366;HTU21D;67641;59.864;30.464;2023-07-13T07:44:05;28.82;26.46
78366;HTU21D;67641;59.864;30.464;2023-07-13T07:46:33;28.84;27.07
78366;HTU21D;67641;59.864;30.464;2023-07-13T07:49:01;28.86;26.52
78366;HTU21D;67641;59.864;30.464;2023-07-13T07:51:27;28.82;26.04
78366;HTU21D;67641;59.864;30.464;2023-07-13T07:53:54;28.80;26.46
78366;HTU21D;67641;59.864;30.464;2023-07-13T07:56:21;28.82;26.12
78366;HTU21D;67641;59.864;30.464;2023-07-13T08:21:07;29.33;25.70
78366;HTU21D;67641;59.864;30.464;2023-07-13T08:23:45;29.38;25.80
78366;HTU21D;67641;59.864;30.464;2023-07-13T08:48:44;29.82;24.87
78366;HTU21D;67641;59.864;30.464;2023-07-13T09:30:23;30.89;23.40
78366;HTU21D;67641;59.864;30.464;2023-07-13T09:32:53;30.94;22.85
78366;HTU21D;67641;59.864;30.464;2023-07-13T09:35:23;31.05;23.37
78366;HTU21D;67641;59.864;30.464;2023-07-13T09:39:51;31.26;22.96
78366;HTU21D;67641;59.864;30.464;2023-07-13T09:42:20;31.39;21.93
78366;HTU21D;67641;59.864;30.464;2023-07-13T09:44:59;31.50;22.18
78366;HTU21D;67641;59.864;30.464;2023-07-13T09:47:31;31.64;21.30
78366;HTU21D;67641;59.864;30.464;2023-07-13T09:50:01;31.69;21.81
78366;HTU21D;67641;59.864;30.464;2023-07-13T09:52:41;31.88;22.20
78366;HTU21D;67641;59.864;30.464;2023-07-13T10:23:12;33.33;21.41
78366;HTU21D;67641;59.864;30.464;2023-07-13T10:25:43;33.49;20.82
78366;HTU21D;67641;59.864;30.464;2023-07-13T10:28:29;33.58;20.66
78366;HTU21D;67641;59.864;30.464;2023-07-13T10:53:30;34.90;18.63
78366;HTU21D;67641;59.864;30.464;2023-07-13T10:56:28;35.20;18.51
78366;HTU21D;67641;59.864;30.464;2023-07-13T10:59:23;35.30;17.99
78366;HTU21D;67641;59.864;30.464;2023-07-13T11:04:39;35.98;17.01
78366;HTU21D;67641;59.864;30.464;2023-07-13T11:07:21;36.48;17.21
78366;HTU21D;67641;59.864;30.464;2023-07-13T11:09:53;37.00;16.06
78366;HTU21D;67641;59.864;30.464;2023-07-13T11:20:21;39.66;13.26
78366;HTU21D;67641;59.864;30.464;2023-07-13T11:25:47;42.91;10.11
78366;HTU21D;67641;59.864;30.464;2023-07-13T11:28:22;44.62;9.08
78366;HTU21D;67641;59.864;30.464;2023-07-13T11:34:08;47.80;7.33
78366;HTU21D;67641;59.864;30.464;2023-07-13T12:20:25;40.13;11.38
78366;HTU21D;67641;59.864;30.464;2023-07-13T12:22:53;39.77;11.08
78366;HTU21D;67641;59.864;30.464;2023-07-13T12:25:20;39.35;11.75
78366;HTU21D;67641;59.864;30.464;2023-07-13T12:29:39;39.20;12.56
78366;HTU21D;67641;59.864;30.464;2023-07-13T12:32:09;39.13;11.22
78366;HTU21D;67641;59.864;30.464;2023-07-13T12:34:54;39.23;11.29
78366;HTU21D;67641;59.864;30.464;2023-07-13T12:37:20;39.35;10.88
78366;HTU21D;67641;59.864;30.464;2023-07-13T12:39:48;39.14;10.93
78366;HTU21D;67641;59.864;30.464;2023-07-13T12:42:20;39.12;10.50
78366;HTU21D;67641;59.864;30.464;2023-07-13T12:44:47;38.99;11.01
78366;HTU21D;67641;59.864;30.464;2023-07-13T12:49:54;38.97;10.87
78366;HTU21D;67641;59.864;30.464;2023-07-13T12:52:32;39.21;11.38
78366;HTU21D;67641;59.864;30.464;2023-07-13T13:16:51;39.70;10.98
78366;HTU21D;67641;59.864;30.464;2023-07-13T13:19:25;39.64;11.52
78366;HTU21D;67641;59.864;30.464;2023-07-13T13:21:55;39.84;11.40
78366;HTU21D;67641;59.864;30.464;2023-07-13T13:24:25;39.87;11.56
78366;HTU21D;67641;59.864;30.464;2023-07-13T13:48:35;39.41;12.65
78366;HTU21D;67641;59.864;30.464;2023-07-13T13:53:38;39.62;12.81
78366;HTU21D;67641;59.864;30.464;2023-07-13T13:56:05;39.61;12.81
78366;HTU21D;67641;59.864;30.464;2023-07-13T13:58:31;39.47;13.71
78366;HTU21D;67641;59.864;30.464;2023-07-13T14:00:58;39.56;13.83
78366;HTU21D;67641;59.864;30.464;2023-07-13T14:03:24;39.27;13.45
78366;HTU21D;67641;59.864;30.464;2023-07-13T14:05:52;39.11;14.23
78366;HTU21D;67641;59.864;30.464;2023-07-13T14:08:20;39.10;15.24
78366;HTU21D;67641;59.864;30.464;2023-07-13T14:10:49;39.15;14.54
78366;HTU21D;67641;59.864;30.464;2023-07-13T14:15:28;39.20;13.21
78366;HTU21D;67641;59.864;30.464;2023-07-13T14:18:00;39.28;13.49
78366;HTU21D;67641;59.864;30.464;2023-07-13T14:20:29;39.33;12.49
78366;HTU21D;67641;59.864;30.464;2023-07-13T14:22:57;39.21;11.85
78366;HTU21D;67641;59.864;30.464;2023-07-13T14:25:25;39.11;11.33
78366;HTU21D;67641;59.864;30.464;2023-07-13T14:27:56;39.09;12.58
78366;HTU21D;67641;59.864;30.464;2023-07-13T14:30:26;38.93;12.07
78366;HTU21D;67641;59.864;30.464;2023-07-13T14:32:55;38.91;12.01
78366;HTU21D;67641;59.864;30.464;2023-07-13T14:35:42;38.89;11.96
78366;HTU21D;67641;59.864;30.464;2023-07-13T14:38:14;38.76;12.41
78366;HTU21D;67641;59.864;30.464;2023-07-13T14:40:44;38.70;12.82
78366;HTU21D;67641;59.864;30.464;2023-07-13T14:43:16;38.67;12.18
78366;HTU21D;67641;59.864;30.464;2023-07-13T14:45:51;38.64;13.39
78366;HTU21D;67641;59.864;30.464;2023-07-13T15:10:00;38.23;17.04
78366;HTU21D;67641;59.864;30.464;2023-07-13T15:12:30;38.24;17.07
78366;HTU21D;67641;59.864;30.464;2023-07-13T15:14:58;38.04;17.07
78366;HTU21D;67641;59.864;30.464;2023-07-13T15:17:48;38.02;17.43
78366;HTU21D;67641;59.864;30.464;2023-07-13T15:20:27;38.06;17.69
78366;HTU21D;67641;59.864;30.464;2023-07-13T15:22:55;38.01;18.20
78366;HTU21D;67641;59.864;30.464;2023-07-13T15:25:25;38.11;18.41
78366;HTU21D;67641;59.864;30.464;2023-07-13T15:27:53;37.86;18.72
78366;HTU21D;67641;59.864;30.464;2023-07-13T15:30:20;37.87;18.19
78366;HTU21D;67641;59.864;30.464;2023-07-13T15:32:48;37.89;18.66
78366;HTU21D;67641;59.864;30.464;2023-07-13T15:35:22;37.67;18.28
78366;HTU21D;67641;59.864;30.464;2023-07-13T15:39:42;37.63;19.24
78366;HTU21D;67641;59.864;30.464;2023-07-13T15:42:16;37.55;18.84
78366;HTU21D;67641;59.864;30.464;2023-07-13T15:44:46;37.64;18.99
78366;HTU21D;67641;59.864;30.464;2023-07-13T15:47:14;37.58;19.43
78366;HTU21D;67641;59.864;30.464;2023-07-13T15:49:41;37.46;18.86
78366;HTU21D;67641;59.864;30.464;2023-07-13T15:52:24;37.25;19.51
78366;HTU21D;67641;59.864;30.464;2023-07-13T15:54:54;36.91;20.31
78366;HTU21D;67641;59.864;30.464;2023-07-13T15:57:21;36.61;21.11
78366;HTU21D;67641;59.864;30.464;2023-07-13T16:01:32;36.22;21.50
78366;HTU21D;67641;59.864;30.464;2023-07-13T16:27:41;34.76;24.08
78366;HTU21D;67641;59.864;30.464;2023-07-13T16:30:13;34.69;24.27
78366;HTU21D;67641;59.864;30.464;2023-07-13T16:32:40;34.64;24.73
78366;HTU21D;67641;59.864;30.464;2023-07-13T16:35:07;34.56;24.76
78366;HTU21D;67641;59.864;30.464;2023-07-13T16:37:35;34.48;24.46
78366;HTU21D;67641;59.864;30.464;2023-07-13T16:40:05;34.44;25.20
78366;HTU21D;67641;59.864;30.464;2023-07-13T16:42:42;34.35;25.09
78366;HTU21D;67641;59.864;30.464;2023-07-13T16:45:12;34.25;25.36
78366;HTU21D;67641;59.864;30.464;2023-07-13T16:47:52;34.15;25.40
78366;HTU21D;67641;59.864;30.464;2023-07-13T16:50:22;34.06;25.74
78366;HTU21D;67641;59.864;30.464;2023-07-13T16:52:50;33.96;25.60
78366;HTU21D;67641;59.864;30.464;2023-07-13T16:55:20;33.88;26.01
78366;HTU21D;67641;59.864;30.464;2023-07-13T16:58:03;33.76;25.71
78366;HTU21D;67641;59.864;30.464;2023-07-13T17:00:37;33.58;26.52
78366;HTU21D;67641;59.864;30.464;2023-07-13T17:03:10;33.41;26.84
78366;HTU21D;67641;59.864;30.464;2023-07-13T17:06:57;33.28;27.11
78366;HTU21D;67641;59.864;30.464;2023-07-13T17:09:25;33.21;26.88
78366;HTU21D;67641;59.864;30.464;2023-07-13T17:11:53;33.09;26.78
78366;HTU21D;67641;59.864;30.464;2023-07-13T17:14:23;33.00;26.26
78366;HTU21D;67641;59.864;30.464;2023-07-13T17:16:56;32.91;26.84
78366;HTU21D;67641;59.864;30.464;2023-07-13T17:19:29;32.86;26.48
78366;HTU21D;67641;59.864;30.464;2023-07-13T17:44:27;31.54;25.11
78366;HTU21D;67641;59.864;30.464;2023-07-13T17:46:56;31.46;24.65
78366;HTU21D;67641;59.864;30.464;2023-07-13T17:49:24;31.43;24.26
78366;HTU21D;67641;59.864;30.464;2023-07-13T17:52:03;31.33;24.48
78366;HTU21D;67641;59.864;30.464;2023-07-13T17:54:31;31.29;23.98
78366;HTU21D;67641;59.864;30.464;2023-07-13T17:56:59;31.24;23.17
78366;HTU21D;67641;59.864;30.464;2023-07-13T17:59:27;31.21;22.85
78366;HTU21D;67641;59.864;30.464;2023-07-13T18:01:53;31.16;23.76
78366;HTU21D;67641;59.864;30.464;2023-07-13T18:06:35;31.11;23.90
78366;HTU21D;67641;59.864;30.464;2023-07-13T18:09:19;31.04;23.89
78366;HTU21D;67641;59.864;30.464;2023-07-13T18:11:47;31.00;23.11
78366;HTU21D;67641;59.864;30.464;2023-07-13T18:14:14;30.99;23.56
78366;HTU21D;67641;59.864;30.464;2023-07-13T18:16:56;30.92;22.36
78366;HTU21D;67641;59.864;30.464;2023-07-13T18:19:53;30.86;22.59
78366;HTU21D;67641;59.864;30.464;2023-07-13T18:22:20;30.79;22.53
78366;HTU21D;67641;59.864;30.464;2023-07-13T18:27:11;30.72;21.84
78366;HTU21D;67641;59.864;30.464;2023-07-13T18:29:38;30.76;22.37
78366;HTU21D;67641;59.864;30.464;2023-07-13T18:32:12;30.70;21.88
78366;HTU21D;67641;59.864;30.464;2023-07-13T18:34:50;30.67;22.08
78366;HTU21D;67641;59.864;30.464;2023-07-13T18:37:25;30.65;22.16
78366;HTU21D;67641;59.864;30.464;2023-07-13T19:01:33;30.20;21.76
78366;HTU21D;67641;59.864;30.464;2023-07-13T19:36:10;29.80;21.91
78366;HTU21D;67641;59.864;30.464;2023-07-13T20:02:31;29.59;22.51
78366;HTU21D;67641;59.864;30.464;2023-07-13T20:04:58;29.51;22.40
78366;HTU21D;67641;59.864;30.464;2023-07-13T20:07:25;29.51;21.95
78366;HTU21D;67641;59.864;30.464;2023-07-13T20:09:52;29.41;22.08
78366;HTU21D;67641;59.864;30.464;2023-07-13T20:34:36;29.28;22.32
78366;HTU21D;67641;59.864;30.464;2023-07-13T20:37:28;29.20;22.33
78366;HTU21D;67641;59.864;30.464;2023-07-13T20:39:59;29.19;22.52
78366;HTU21D;67641;59.864;30.464;2023-07-13T20:42:58;29.19;22.63
78366;HTU21D;67641;59.864;30.464;2023-07-13T20:45:53;29.17;22.31
78366;HTU21D;67641;59.864;30.464;2023-07-13T20:48:31;29.16;22.45
78366;HTU21D;67641;59.864;30.464;2023-07-13T20:51:08;29.14;22.24
78366;HTU21D;67641;59.864;30.464;2023-07-13T20:53:55;29.11;22.77
78366;HTU21D;67641;59.864;30.464;2023-07-13T20:56:29;29.07;22.60
78366;HTU21D;67641;59.864;30.464;2023-07-13T20:58:56;29.04;22.94
78366;HTU21D;67641;59.864;30.464;2023-07-13T21:01:34;29.05;22.90
78366;HTU21D;67641;59.864;30.464;2023-07-13T21:07:01;29.01;22.47
78366;HTU21D;67641;59.864;30.464;2023-07-13T21:09:55;28.99;22.95
78366;HTU21D;67641;59.864;30.464;2023-07-13T21:12:24;29.00;23.17
78366;HTU21D;67641;59.864;30.464;2023-07-13T21:14:57;29.02;23.54
78366;HTU21D;67641;59.864;30.464;2023-07-13T21:17:35;29.01;24.14
78366;HTU21D;67641;59.864;30.464;2023-07-13T21:20:02;28.93;23.75
78366;HTU21D;67641;59.864;30.464;2023-07-13T21:22:44;28.91;23.89
78366;HTU21D;67641;59.864;30.464;2023-07-13T22:02:48;28.30;24.99
78366;HTU21D;67641;59.864;30.464;2023-07-13T23:57:21;27.43;26.78
